Bickley, Georgia
Current Conditions -  °F | °C
As of 6:53 PM on Friday 21 Nov 2014 (Local Time) from KAMG Reporting Station
Clear Clear  
Wind Chill: 46°   Ceiling: Unl
Heat Index: 46°   Visibility: 10mi
Dew Point: 33°   Wind: 0mph
Humidity: 61%   Direction: NA
Pressure: 30.35"   Gusts: NA
Location:  31.4253°N, 82.5972°W
Report Text: KAMG 212353Z AUTO 00000KT 10SM CLR 08/01 A3035 RMK AO2 SLP278 T00780006 10206 20078 53009
Loading
Personal Weather Stations






























Interactive Weather Map New forecast layout! Learn more

10-Day Weather Forecast

Advertisements
Track Severe Weather on mobile